createdAt,value
2024-05-09T00:00:57.753Z,1.49
2024-05-09T00:03:30.136Z,1.47
2024-05-09T00:06:02.887Z,1.40
2024-05-09T00:08:35.267Z,1.42
2024-05-09T00:11:07.838Z,1.37
2024-05-09T00:13:40.438Z,1.33
2024-05-09T00:16:13.324Z,1.32
2024-05-09T00:18:46.603Z,1.32
2024-05-09T00:21:19.305Z,1.31
2024-05-09T00:23:52.003Z,1.26
2024-05-09T00:26:25.223Z,1.23
2024-05-09T00:28:57.828Z,1.16
2024-05-09T00:31:30.509Z,1.12
2024-05-09T00:34:02.916Z,1.12
2024-05-09T00:36:35.893Z,1.03
2024-05-09T00:39:09.416Z,0.97
2024-05-09T00:41:42.054Z,0.89
2024-05-09T00:44:14.545Z,0.82
2024-05-09T00:46:47.394Z,0.74
2024-05-09T00:49:20.346Z,0.64
2024-05-09T00:51:54.991Z,0.59
2024-05-09T00:54:28.176Z,0.53
2024-05-09T00:57:01.125Z,0.51
2024-05-09T00:59:34.929Z,0.49
2024-05-09T01:02:08.906Z,0.46
2024-05-09T01:04:42.161Z,0.46
2024-05-09T01:07:14.530Z,0.42
2024-05-09T01:09:47.918Z,0.39
2024-05-09T01:12:20.469Z,0.36
2024-05-09T01:14:53.193Z,0.32
2024-05-09T01:17:26.793Z,0.31
2024-05-09T01:19:59.603Z,0.39
2024-05-09T01:22:36.454Z,0.33
2024-05-09T01:25:09.004Z,0.35
2024-05-09T01:27:41.321Z,0.36
2024-05-09T01:30:21.250Z,0.41
2024-05-09T01:32:51.460Z,0.45
2024-05-09T01:35:24.145Z,0.47
2024-05-09T01:37:57.586Z,0.45
2024-05-09T01:40:37.216Z,0.48
2024-05-09T01:43:04.579Z,0.51
2024-05-09T01:45:36.994Z,0.55
2024-05-09T01:48:11.442Z,0.58
2024-05-09T01:50:44.263Z,0.56
2024-05-09T01:53:17.467Z,0.58
2024-05-09T01:55:50.021Z,0.60
2024-05-09T01:58:22.503Z,0.63
2024-05-09T02:00:55.079Z,0.65
2024-05-09T02:03:28.473Z,0.79
2024-05-09T02:06:01.428Z,0.71
2024-05-09T02:08:34.021Z,0.73
2024-05-09T02:11:08.283Z,0.74
2024-05-09T02:13:42.759Z,0.80
2024-05-09T02:16:16.342Z,0.82
2024-05-09T02:18:54.163Z,0.85
2024-05-09T02:21:26.706Z,0.90
2024-05-09T02:23:59.636Z,1.00
2024-05-09T02:26:32.567Z,1.00
2024-05-09T02:29:05.120Z,1.04
2024-05-09T02:31:37.844Z,1.15
2024-05-09T02:34:10.441Z,1.11
2024-05-09T02:36:42.788Z,1.08
2024-05-09T02:39:15.154Z,1.10
2024-05-09T02:41:47.792Z,1.10
2024-05-09T02:44:20.185Z,1.13
2024-05-09T02:46:52.706Z,1.19
2024-05-09T02:49:25.510Z,1.31
2024-05-09T02:51:57.935Z,1.33
2024-05-09T02:54:30.244Z,1.32
2024-05-09T02:57:02.967Z,1.32
2024-05-09T02:59:35.632Z,1.41
2024-05-09T03:02:08.959Z,1.50
2024-05-09T03:04:43.963Z,1.56
2024-05-09T03:07:19.721Z,1.58
2024-05-09T03:09:50.976Z,1.60
2024-05-09T03:12:23.167Z,1.57
2024-05-09T03:14:56.091Z,1.60
2024-05-09T03:17:29.233Z,1.60
2024-05-09T03:20:02.238Z,1.67
2024-05-09T03:22:34.520Z,1.73
2024-05-09T03:25:07.804Z,1.62
2024-05-09T03:27:41.356Z,1.59
2024-05-09T03:30:28.746Z,1.60
2024-05-09T03:32:49.695Z,1.67
2024-05-09T03:35:22.004Z,1.79
2024-05-09T03:37:54.826Z,1.75
2024-05-09T03:40:30.878Z,1.81
2024-05-09T03:43:02.517Z,1.90
2024-05-09T03:45:35.383Z,2.04
2024-05-09T03:48:09.118Z,2.19
2024-05-09T03:50:42.005Z,2.38
2024-05-09T03:53:16.165Z,2.41
2024-05-09T03:55:51.140Z,2.50
2024-05-09T03:58:23.795Z,2.51
2024-05-09T04:00:57.261Z,2.38
2024-05-09T04:03:30.495Z,2.28
2024-05-09T04:06:03.069Z,2.22
2024-05-09T04:08:35.621Z,2.18
2024-05-09T04:11:08.720Z,2.18
2024-05-09T04:13:41.088Z,2.29
2024-05-09T04:16:13.771Z,2.40
2024-05-09T04:18:46.313Z,2.61
2024-05-09T04:21:18.929Z,2.85
2024-05-09T04:23:52.180Z,2.93
2024-05-09T04:26:24.919Z,2.94
2024-05-09T04:28:57.610Z,2.96
2024-05-09T04:31:31.715Z,2.86
2024-05-09T04:34:04.744Z,2.66
2024-05-09T04:36:38.522Z,2.53
2024-05-09T04:39:11.449Z,2.39
2024-05-09T04:41:44.821Z,2.36
2024-05-09T04:44:18.846Z,2.27
2024-05-09T04:46:51.564Z,2.32
2024-05-09T04:49:24.615Z,2.46
2024-05-09T04:51:57.262Z,2.73
2024-05-09T04:54:34.187Z,3.00
2024-05-09T04:57:03.948Z,3.13
2024-05-09T04:59:37.584Z,3.26
2024-05-09T05:02:10.793Z,3.37
2024-05-09T05:04:43.082Z,3.56
2024-05-09T05:07:15.678Z,3.62
2024-05-09T05:09:48.812Z,3.70
2024-05-09T05:12:39.359Z,3.80
2024-05-09T05:15:11.940Z,3.83
2024-05-09T05:17:45.884Z,3.86
2024-05-09T05:20:27.150Z,3.80
2024-05-09T05:22:52.428Z,3.83
2024-05-09T05:25:25.697Z,3.86
2024-05-09T05:27:57.926Z,3.94
2024-05-09T05:30:34.567Z,3.75
2024-05-09T05:33:07.781Z,3.66
2024-05-09T05:35:41.867Z,3.44
2024-05-09T05:38:14.575Z,3.37
2024-05-09T05:40:47.724Z,3.32
2024-05-09T05:43:21.581Z,3.23
2024-05-09T05:45:54.016Z,3.16
2024-05-09T05:48:26.866Z,3.13
2024-05-09T05:51:02.702Z,3.21
2024-05-09T05:53:33.507Z,3.38
2024-05-09T05:56:07.241Z,3.57
2024-05-09T05:58:40.579Z,3.41
2024-05-09T06:01:13.259Z,3.29
2024-05-09T06:03:46.633Z,3.33
2024-05-09T06:06:19.242Z,3.46
2024-05-09T06:08:53.270Z,3.51
2024-05-09T06:11:25.722Z,3.58
2024-05-09T06:13:58.485Z,3.54
2024-05-09T06:16:32.689Z,3.52
2024-05-09T06:19:05.999Z,3.70
2024-05-09T06:21:40.171Z,3.94
2024-05-09T06:24:14.642Z,3.93
2024-05-09T06:26:48.035Z,3.78
2024-05-09T06:29:20.971Z,3.77
2024-05-09T06:31:53.517Z,4.01
2024-05-09T06:34:28.752Z,4.00
2024-05-09T06:37:01.835Z,4.22
2024-05-09T06:39:35.735Z,4.38
2024-05-09T06:42:08.348Z,4.55
2024-05-09T06:44:41.015Z,4.79
2024-05-09T06:47:14.647Z,4.86
2024-05-09T06:49:47.665Z,4.84
2024-05-09T06:52:19.948Z,4.91
2024-05-09T06:54:55.271Z,5.10
2024-05-09T06:57:30.296Z,5.25
2024-05-09T07:00:02.995Z,5.15
2024-05-09T07:02:36.595Z,5.08
2024-05-09T07:05:13.870Z,4.50
2024-05-09T07:07:48.785Z,4.35
2024-05-09T07:10:28.917Z,3.98
2024-05-09T07:12:58.630Z,4.11
2024-05-09T07:15:32.529Z,4.47
2024-05-09T07:18:11.979Z,4.77
2024-05-09T07:20:44.807Z,4.62
2024-05-09T07:23:19.281Z,4.50
2024-05-09T07:25:55.040Z,4.56
2024-05-09T07:28:29.862Z,4.72
2024-05-09T07:31:07.355Z,5.09
2024-05-09T07:33:40.599Z,5.45
2024-05-09T07:36:14.691Z,5.53
2024-05-09T07:38:47.763Z,5.58
2024-05-09T07:41:21.549Z,5.52
2024-05-09T07:43:55.023Z,5.28
2024-05-09T07:47:36.805Z,5.01
2024-05-09T07:50:53.287Z,4.90
2024-05-09T07:54:22.208Z,5.00
2024-05-09T07:56:56.479Z,5.17
2024-05-09T07:59:30.098Z,5.39
2024-05-09T08:02:07.664Z,5.62
2024-05-09T08:04:43.189Z,5.86
2024-05-09T08:07:20.228Z,6.12
2024-05-09T08:09:56.283Z,6.42
2024-05-09T08:12:31.826Z,6.51
2024-05-09T08:15:07.032Z,6.44
2024-05-09T08:17:38.882Z,6.75
2024-05-09T08:20:18.750Z,7.09
2024-05-09T08:22:50.246Z,7.07
2024-05-09T08:25:28.970Z,7.09
2024-05-09T08:28:03.298Z,6.89
2024-05-09T08:30:37.925Z,6.77
2024-05-09T08:33:11.715Z,6.84
2024-05-09T08:35:45.464Z,6.38
2024-05-09T08:38:18.340Z,6.29
2024-05-09T08:40:53.533Z,6.47
2024-05-09T08:43:29.784Z,6.59
2024-05-09T08:46:08.252Z,6.73
2024-05-09T08:48:43.453Z,6.68
2024-05-09T08:51:19.432Z,6.83
2024-05-09T08:53:55.954Z,6.69
2024-05-09T08:56:35.949Z,6.49
2024-05-09T08:59:13.683Z,6.78
2024-05-09T09:01:48.460Z,7.26
2024-05-09T09:04:25.259Z,7.72
2024-05-09T09:07:00.426Z,7.97
2024-05-09T09:09:38.939Z,8.32
2024-05-09T09:12:14.350Z,8.42
2024-05-09T09:14:51.051Z,8.56
2024-05-09T09:17:25.317Z,8.74
2024-05-09T09:20:05.323Z,8.60
2024-05-09T09:22:38.575Z,8.65
2024-05-09T09:25:12.545Z,8.73
2024-05-09T09:27:45.261Z,8.76
2024-05-09T09:30:31.410Z,8.86
2024-05-09T09:32:53.857Z,8.53
2024-05-09T09:35:28.984Z,8.52
2024-05-09T09:38:08.077Z,8.76
2024-05-09T09:40:49.507Z,9.18
2024-05-09T09:43:24.211Z,9.57
2024-05-09T09:46:02.822Z,9.63
2024-05-09T09:48:39.621Z,9.30
2024-05-09T09:51:13.111Z,8.85
2024-05-09T09:53:47.028Z,8.65
2024-05-09T09:56:24.834Z,8.48
2024-05-09T09:59:03.238Z,8.71
2024-05-09T10:01:40.212Z,9.20
2024-05-09T10:04:19.293Z,9.65
2024-05-09T10:06:58.085Z,9.65
2024-05-09T10:09:33.445Z,9.75
2024-05-09T10:12:12.547Z,9.70
2024-05-09T10:17:52.693Z,9.26
2024-05-09T10:20:30.866Z,8.97
2024-05-09T10:23:02.544Z,8.80
2024-05-09T10:25:35.237Z,8.70
2024-05-09T10:28:14.219Z,8.67
2024-05-09T10:33:22.237Z,8.93
2024-05-09T10:35:56.150Z,8.83
2024-05-09T10:38:30.461Z,8.94
2024-05-09T10:41:06.467Z,9.12
2024-05-09T10:43:43.863Z,9.34
2024-05-09T10:46:21.461Z,9.26
2024-05-09T10:48:57.973Z,9.30
2024-05-09T10:51:37.771Z,9.14
2024-05-09T10:54:12.258Z,9.13
2024-05-09T10:56:47.314Z,9.21
2024-05-09T10:59:23.022Z,9.18
2024-05-09T11:01:59.213Z,8.89
2024-05-09T11:04:42.068Z,8.88
2024-05-09T11:07:20.179Z,8.75
2024-05-09T11:09:56.224Z,8.82
2024-05-09T11:12:30.082Z,9.01
2024-05-09T11:15:07.306Z,9.21
2024-05-09T11:17:45.886Z,9.43
2024-05-09T11:20:29.118Z,9.66
2024-05-09T11:22:56.684Z,10.31
2024-05-09T11:25:32.002Z,11.46
2024-05-09T11:28:10.297Z,11.96
2024-05-09T11:30:43.639Z,11.93
2024-05-09T11:33:20.091Z,11.63
2024-05-09T11:35:55.516Z,11.60
2024-05-09T11:38:32.189Z,11.33
2024-05-09T11:41:07.963Z,11.32
2024-05-09T11:43:44.286Z,11.46
2024-05-09T11:46:21.889Z,11.46
2024-05-09T11:48:58.384Z,11.87
2024-05-09T11:51:38.140Z,11.99
2024-05-09T11:54:12.037Z,12.06
2024-05-09T11:56:47.558Z,12.05
2024-05-09T11:59:22.341Z,11.98
2024-05-09T12:01:57.777Z,11.71
2024-05-09T12:04:35.736Z,11.35
2024-05-09T12:07:13.040Z,11.41
2024-05-09T12:09:47.772Z,13.30
2024-05-09T12:12:22.127Z,15.19
2024-05-09T12:14:56.129Z,15.91
2024-05-09T12:17:30.972Z,14.73
2024-05-09T12:20:09.143Z,13.85
2024-05-09T12:22:41.109Z,14.73
2024-05-09T12:25:25.672Z,16.37
2024-05-09T12:28:02.278Z,15.83
2024-05-09T12:30:41.718Z,15.08
2024-05-09T12:33:16.909Z,14.13
2024-05-09T12:35:52.145Z,14.32
2024-05-09T12:38:28.901Z,14.18
2024-05-09T12:41:07.277Z,13.93
2024-05-09T12:43:42.378Z,13.45
2024-05-09T12:46:20.962Z,13.09
2024-05-09T12:48:54.744Z,14.36
2024-05-09T12:51:32.092Z,16.29
2024-05-09T12:54:09.221Z,18.01
2024-05-09T12:56:43.490Z,19.26
2024-05-09T12:59:21.886Z,20.50
2024-05-09T13:02:02.188Z,20.66
2024-05-09T13:04:35.862Z,20.82
2024-05-09T13:07:10.405Z,20.54
2024-05-09T13:09:47.796Z,19.55
2024-05-09T13:12:24.333Z,17.77
2024-05-09T13:15:02.683Z,16.29
2024-05-09T13:17:37.002Z,14.19
2024-05-09T13:20:18.921Z,14.19
2024-05-09T13:22:48.818Z,13.74
2024-05-09T13:25:21.954Z,13.94
2024-05-09T13:27:58.027Z,15.23
2024-05-09T13:30:38.997Z,16.20
2024-05-09T13:33:08.445Z,16.78
2024-05-09T13:35:48.730Z,17.00
2024-05-09T13:38:21.217Z,17.00
2024-05-09T13:40:58.167Z,16.97
2024-05-09T13:43:33.302Z,16.38
2024-05-09T13:46:12.491Z,16.38
2024-05-09T13:48:47.175Z,15.49
2024-05-09T13:51:22.106Z,15.84
2024-05-09T13:53:58.760Z,16.08
2024-05-09T13:56:33.825Z,16.61
2024-05-09T13:59:08.082Z,17.39
2024-05-09T14:01:40.893Z,17.35
2024-05-09T14:04:13.578Z,17.48
2024-05-09T14:06:48.375Z,15.07
2024-05-09T14:09:24.821Z,15.07
2024-05-09T14:12:02.842Z,15.04
2024-05-09T14:14:37.474Z,16.40
2024-05-09T14:17:11.208Z,18.50
2024-05-09T14:19:44.331Z,20.22
2024-05-09T14:22:17.945Z,19.23
2024-05-09T14:24:53.223Z,18.96
2024-05-09T14:27:29.810Z,19.90
2024-05-09T14:30:11.758Z,19.63
2024-05-09T14:32:45.547Z,18.75
2024-05-09T14:35:19.524Z,17.42
2024-05-09T14:37:53.447Z,16.09
2024-05-09T14:40:38.944Z,16.10
2024-05-09T14:43:04.608Z,16.67
2024-05-09T14:45:39.245Z,16.20
2024-05-09T14:48:16.571Z,15.44
2024-05-09T14:50:49.739Z,14.47
2024-05-09T14:53:26.581Z,13.48
2024-05-09T14:55:59.159Z,13.48
2024-05-09T14:58:33.322Z,13.42
2024-05-09T15:01:05.913Z,12.74
2024-05-09T15:03:38.396Z,12.57
2024-05-09T15:06:10.841Z,12.20
2024-05-09T15:08:44.056Z,12.04
2024-05-09T15:11:16.421Z,12.01
2024-05-09T15:13:54.054Z,11.77
2024-05-09T15:16:28.513Z,11.52
2024-05-09T15:19:03.698Z,11.31
2024-05-09T15:21:42.425Z,11.16
2024-05-09T15:24:15.116Z,11.11
2024-05-09T15:26:52.749Z,11.08
2024-05-09T15:29:26.828Z,11.28
2024-05-09T15:32:02.740Z,10.96
2024-05-09T15:34:39.771Z,10.63
2024-05-09T15:37:16.396Z,10.48
2024-05-09T15:39:50.376Z,10.32
2024-05-09T15:42:26.335Z,10.23
2024-05-09T15:45:02.107Z,10.21
2024-05-09T15:47:38.486Z,10.08
2024-05-09T15:50:20.497Z,9.97
2024-05-09T15:52:52.766Z,9.83
2024-05-09T15:55:25.290Z,9.73
2024-05-09T15:57:57.834Z,9.64
2024-05-09T16:00:37.717Z,9.59
2024-05-09T16:03:10.481Z,9.66
2024-05-09T16:05:47.236Z,9.64
2024-05-09T16:08:22.714Z,9.75
2024-05-09T16:10:59.993Z,9.29
2024-05-09T16:13:33.743Z,9.05
2024-05-09T16:16:06.739Z,9.02
2024-05-09T16:18:40.829Z,8.59
2024-05-09T16:21:14.103Z,8.37
2024-05-09T16:23:47.046Z,8.14
2024-05-09T16:26:19.959Z,7.97
2024-05-09T16:28:52.764Z,7.89
2024-05-09T16:31:28.141Z,7.84
2024-05-09T16:34:03.839Z,7.81
2024-05-09T16:36:36.844Z,7.77
2024-05-09T16:39:09.922Z,7.66
2024-05-09T16:41:43.924Z,7.57
2024-05-09T16:44:19.620Z,7.53
2024-05-09T16:46:56.206Z,7.50
2024-05-09T16:49:33.650Z,7.46
2024-05-09T16:52:09.937Z,7.43
2024-05-09T16:54:44.272Z,7.44
2024-05-09T16:57:19.922Z,7.35
2024-05-09T16:59:52.405Z,7.28
2024-05-09T17:02:30.718Z,7.35
2024-05-09T17:05:05.286Z,7.11
2024-05-09T17:07:39.031Z,7.04
2024-05-09T17:10:22.192Z,7.05
2024-05-09T17:12:52.570Z,7.05
2024-05-09T17:15:34.461Z,7.05
2024-05-09T17:18:14.375Z,6.93
2024-05-09T17:20:51.664Z,6.85
2024-05-09T17:23:27.653Z,6.69
2024-05-09T17:26:01.821Z,6.65
2024-05-09T17:28:37.161Z,6.57
2024-05-09T17:31:10.923Z,6.55
2024-05-09T17:33:45.361Z,6.50
2024-05-09T17:36:17.589Z,6.38
2024-05-09T17:38:53.428Z,6.38
2024-05-09T17:41:30.450Z,6.08
2024-05-09T17:44:08.702Z,5.97
2024-05-09T17:46:43.462Z,5.92
2024-05-09T17:49:15.811Z,5.85
2024-05-09T17:51:57.229Z,5.93
2024-05-09T17:54:33.498Z,5.75
2024-05-09T17:57:09.301Z,5.73
2024-05-09T17:59:44.370Z,5.70
2024-05-09T18:02:23.207Z,5.60
2024-05-09T18:04:57.279Z,5.54
2024-05-09T18:07:33.692Z,5.46
2024-05-09T18:10:19.326Z,5.42
2024-05-09T18:12:48.757Z,5.41
2024-05-09T18:15:23.590Z,5.39
2024-05-09T18:17:56.710Z,5.44
2024-05-09T18:20:41.395Z,5.47
2024-05-09T18:23:10.104Z,5.52
2024-05-09T18:25:45.145Z,5.56
2024-05-09T18:28:19.868Z,5.62
2024-05-09T18:30:52.882Z,5.65
2024-05-09T18:33:31.511Z,5.72
2024-05-09T18:36:05.725Z,5.70
2024-05-09T18:38:40.961Z,5.73
2024-05-09T18:41:13.983Z,5.73
2024-05-09T18:43:50.491Z,5.73
2024-05-09T18:46:25.128Z,5.76
2024-05-09T18:48:58.847Z,5.71
2024-05-09T18:51:33.291Z,5.73
2024-05-09T18:54:05.854Z,5.68
2024-05-09T18:56:44.482Z,5.64
2024-05-09T18:59:17.532Z,5.64
2024-05-09T19:01:53.364Z,5.63
2024-05-09T19:04:25.931Z,5.61
2024-05-09T19:07:02.509Z,5.53
2024-05-09T19:09:36.975Z,5.49
2024-05-09T19:12:12.044Z,5.40
2024-05-09T19:14:48.022Z,5.39
2024-05-09T19:17:26.188Z,5.34
2024-05-09T19:20:00.089Z,5.36
2024-05-09T19:22:36.264Z,5.36
2024-05-09T19:25:13.331Z,5.37
2024-05-09T19:27:50.102Z,5.42
2024-05-09T19:30:30.044Z,5.42
2024-05-09T19:32:55.167Z,5.54
2024-05-09T19:35:30.935Z,5.49
2024-05-09T19:38:04.412Z,5.49
2024-05-09T19:40:37.369Z,5.51
2024-05-09T19:43:11.314Z,5.51
2024-05-09T19:45:44.407Z,5.48
2024-05-09T19:48:17.460Z,5.46
2024-05-09T19:50:53.107Z,5.46
2024-05-09T19:53:25.863Z,5.58
2024-05-09T19:56:00.988Z,5.41
2024-05-09T19:58:35.530Z,5.34
2024-05-09T20:01:12.078Z,5.32
2024-05-09T20:03:46.501Z,5.32
2024-05-09T20:06:24.358Z,5.31
2024-05-09T20:08:59.204Z,5.31
2024-05-09T20:11:33.301Z,5.36
2024-05-09T20:14:06.081Z,5.37
2024-05-09T20:16:41.204Z,5.40
2024-05-09T20:19:17.452Z,5.43
2024-05-09T20:21:51.527Z,5.43
2024-05-09T20:24:23.836Z,5.45
2024-05-09T20:26:56.754Z,5.41
2024-05-09T20:29:31.173Z,5.40
2024-05-09T20:32:06.159Z,5.60
2024-05-09T20:34:39.129Z,5.47
2024-05-09T20:37:11.838Z,5.58
2024-05-09T20:39:49.772Z,5.60
2024-05-09T20:42:24.434Z,5.60
2024-05-09T20:44:58.035Z,5.55
2024-05-09T20:47:34.415Z,5.58
2024-05-09T20:50:13.668Z,5.53
2024-05-09T20:52:45.617Z,5.49
2024-05-09T20:55:18.426Z,5.47
2024-05-09T20:57:52.543Z,5.44
2024-05-09T21:00:33.875Z,5.45
2024-05-09T21:02:59.657Z,5.39
2024-05-09T21:05:33.109Z,5.32
2024-05-09T21:08:06.175Z,5.35
2024-05-09T21:10:39.269Z,5.37
2024-05-09T21:13:12.051Z,5.41
2024-05-09T21:15:46.183Z,5.40
2024-05-09T21:18:19.020Z,5.45
2024-05-09T21:20:51.643Z,5.41
2024-05-09T21:23:25.858Z,5.36
2024-05-09T21:25:58.661Z,5.30
2024-05-09T21:28:32.699Z,5.20
2024-05-09T21:31:07.230Z,5.23
2024-05-09T21:33:40.467Z,5.17
2024-05-09T21:36:13.578Z,5.10
2024-05-09T21:38:45.935Z,5.02
2024-05-09T21:41:20.037Z,4.98
2024-05-09T21:43:52.914Z,4.89
2024-05-09T21:46:26.042Z,4.85
2024-05-09T21:48:59.414Z,4.83
2024-05-09T21:51:32.558Z,4.84
2024-05-09T21:54:05.524Z,4.89
2024-05-09T21:56:38.679Z,4.87
2024-05-09T21:59:10.754Z,4.93
2024-05-09T22:01:43.742Z,4.95
2024-05-09T22:04:17.354Z,4.94
2024-05-09T22:06:50.000Z,4.96
2024-05-09T22:09:22.687Z,4.97
2024-05-09T22:11:56.580Z,5.02
2024-05-09T22:14:29.308Z,5.11
2024-05-09T22:17:01.665Z,5.19
2024-05-09T22:19:34.198Z,5.19
2024-05-09T22:22:08.703Z,5.17
2024-05-09T22:24:41.359Z,5.17
2024-05-09T22:27:14.575Z,5.10
2024-05-09T22:29:47.026Z,5.12
2024-05-09T22:32:19.409Z,5.17
2024-05-09T22:34:52.330Z,5.08
2024-05-09T22:37:24.942Z,5.09
2024-05-09T22:39:57.547Z,5.10
2024-05-09T22:42:30.097Z,5.14
2024-05-09T22:45:02.406Z,5.07
2024-05-09T22:47:35.341Z,5.09
2024-05-09T22:50:12.964Z,5.18
2024-05-09T22:52:43.776Z,5.14
2024-05-09T22:55:16.024Z,5.12
2024-05-09T22:57:49.487Z,5.08
2024-05-09T23:00:30.831Z,5.06
2024-05-09T23:02:56.696Z,5.16
2024-05-09T23:05:29.912Z,5.11
2024-05-09T23:08:05.426Z,5.11
2024-05-09T23:10:38.465Z,5.12
2024-05-09T23:13:11.560Z,5.10
2024-05-09T23:15:44.509Z,5.00
2024-05-09T23:18:16.893Z,5.12
2024-05-09T23:20:49.269Z,5.11
2024-05-09T23:23:22.053Z,5.06
2024-05-09T23:25:54.945Z,5.02
2024-05-09T23:28:27.228Z,5.10
2024-05-09T23:30:59.551Z,5.17
2024-05-09T23:33:32.007Z,5.23
2024-05-09T23:36:04.345Z,5.18
2024-05-09T23:38:36.634Z,5.22
2024-05-09T23:41:09.302Z,5.21
2024-05-09T23:43:43.075Z,5.22
2024-05-09T23:46:15.569Z,5.33
2024-05-09T23:48:48.073Z,5.23
2024-05-09T23:51:20.451Z,5.20
2024-05-09T23:53:52.614Z,5.16
2024-05-09T23:56:24.910Z,5.18
2024-05-09T23:58:57.225Z,5.12
